Time;durP1;ratioP1;P1;durP2;ratioP2;P2;SDS_P1;SDS_P2;PMS_P1;PMS_P2;Temp;Humidity;BMP_temperature;BMP_pressure;BME280_temperature;BME280_humidity;BME280_pressure;Samples;Min_cycle;Max_cycle;Signal;HPM_P1;HPM_P2
2021/06/29 00:29:53;;;;;;;18.92;10.77;;;;;;;;;;4958539;29;20042;-87
2021/06/29 00:32:19;;;;;;;15.90;11.38;;;;;;;;;;4940566;29;20031;-87
2021/06/29 00:34:44;;;;;;;18.92;9.57;;;;;;;;;;4957750;29;20503;-85
2021/06/29 00:37:10;;;;;;;16.48;9.77;;;;;;;;;;4941324;29;20046;-87
2021/06/29 00:39:45;;;;;;;18.35;9.73;;;;;;;;;;4940465;29;20035;-87
2021/06/29 00:42:10;;;;;;;19.77;10.38;;;;;;;;;;4957756;29;20464;-86
2021/06/29 00:44:36;;;;;;;22.00;9.10;;;;;;;;;;4957863;29;20066;-86
2021/06/29 00:47:02;;;;;;;17.65;10.30;;;;;;;;;;4957527;29;20032;-87
2021/06/29 00:49:28;;;;;;;17.73;11.25;;;;;;;;;;4957427;29;20155;-87
2021/06/29 00:51:53;;;;;;;16.58;11.48;;;;;;;;;;4941361;29;20031;-87
2021/06/29 00:54:19;;;;;;;16.75;11.82;;;;;;;;;;4940520;29;20519;-87
2021/06/29 00:56:45;;;;;;;14.65;9.88;;;;;;;;;;4957424;29;20033;-87
2021/06/29 00:59:12;;;;;;;17.65;10.68;;;;;;;;;;4957409;29;20392;-86
2021/06/29 01:01:37;;;;;;;12.90;9.20;;;;;;;;;;4957301;29;20023;-87
2021/06/29 01:04:05;;;;;;;15.35;9.55;;;;;;;;;;4936869;29;20054;-86
2021/06/29 01:06:32;;;;;;;13.63;9.23;;;;;;;;;;4938307;29;20031;-87
2021/06/29 01:08:58;;;;;;;15.77;7.88;;;;;;;;;;4938337;29;20058;-87
2021/06/29 01:11:24;;;;;;;14.50;8.85;;;;;;;;;;4938052;29;20056;-86
2021/06/29 01:13:50;;;;;;;19.42;10.77;;;;;;;;;;4937907;29;20027;-87
2021/06/29 01:16:15;;;;;;;12.30;8.68;;;;;;;;;;4937934;29;20425;-87
2021/06/29 01:18:44;;;;;;;13.35;9.60;;;;;;;;;;4936545;29;20062;-87
2021/06/29 01:21:18;;;;;;;15.20;9.60;;;;;;;;;;4937962;29;20030;-87
2021/06/29 01:23:54;;;;;;;13.50;9.82;;;;;;;;;;4938113;29;20103;-86
2021/06/29 01:26:25;;;;;;;15.32;8.85;;;;;;;;;;4937628;29;20024;-86
2021/06/29 01:29:02;;;;;;;19.63;9.45;;;;;;;;;;4937996;29;20027;-86
2021/06/29 01:31:28;;;;;;;13.82;9.68;;;;;;;;;;4936427;29;20459;-86
2021/06/29 01:33:54;;;;;;;14.57;8.85;;;;;;;;;;4937558;29;20059;-87
2021/06/29 01:36:27;;;;;;;15.25;11.27;;;;;;;;;;4936302;29;20071;-86
2021/06/29 01:38:53;;;;;;;15.23;9.95;;;;;;;;;;4937541;29;20028;-87
2021/06/29 01:41:23;;;;;;;13.40;7.68;;;;;;;;;;4936135;29;20127;-86
2021/06/29 01:43:53;;;;;;;12.48;8.43;;;;;;;;;;4936174;29;20030;-87
2021/06/29 01:46:20;;;;;;;14.02;8.43;;;;;;;;;;4937247;29;20020;-87
2021/06/29 01:48:48;;;;;;;15.32;10.85;;;;;;;;;;4936030;29;20034;-87
2021/06/29 01:51:14;;;;;;;14.65;9.82;;;;;;;;;;4937332;29;20028;-86
2021/06/29 01:53:41;;;;;;;16.63;9.15;;;;;;;;;;4937507;29;20035;-89
2021/06/29 01:56:14;;;;;;;13.80;10.07;;;;;;;;;;4937512;29;20028;-87
2021/06/29 01:58:42;;;;;;;13.98;8.55;;;;;;;;;;4937340;29;20023;-86
2021/06/29 02:01:07;;;;;;;13.20;6.85;;;;;;;;;;4937385;29;20028;-87
2021/06/29 02:03:33;;;;;;;17.63;8.80;;;;;;;;;;4943684;29;20050;-86
2021/06/29 02:05:59;;;;;;;12.65;9.55;;;;;;;;;;4956192;29;20558;-87
2021/06/29 02:08:24;;;;;;;11.10;7.45;;;;;;;;;;4956317;29;20118;-87
2021/06/29 02:10:55;;;;;;;12.90;8.38;;;;;;;;;;4956300;29;20032;-86
2021/06/29 02:13:21;;;;;;;12.98;7.13;;;;;;;;;;4956115;29;20454;-86
2021/06/29 02:15:47;;;;;;;16.77;9.85;;;;;;;;;;4955974;29;20106;-86
2021/06/29 02:18:12;;;;;;;14.38;7.47;;;;;;;;;;4955962;29;20034;-87
2021/06/29 02:20:42;;;;;;;17.17;10.43;;;;;;;;;;4955942;29;20090;-86
2021/06/29 02:23:07;;;;;;;14.43;9.65;;;;;;;;;;4955861;29;20112;-86
2021/06/29 02:25:33;;;;;;;15.23;9.20;;;;;;;;;;4938879;29;20055;-87
2021/06/29 02:27:59;;;;;;;12.13;8.82;;;;;;;;;;4938494;29;20035;-87
2021/06/29 02:30:25;;;;;;;15.27;10.15;;;;;;;;;;4938505;29;20357;-87
2021/06/29 02:32:50;;;;;;;13.30;10.65;;;;;;;;;;4938021;29;20439;-87
2021/06/29 02:35:16;;;;;;;11.95;9.00;;;;;;;;;;4938434;29;20055;-86
2021/06/29 02:37:42;;;;;;;14.02;7.63;;;;;;;;;;4955636;29;20479;-87
2021/06/29 02:40:10;;;;;;;17.30;9.77;;;;;;;;;;4938365;29;20391;-86
2021/06/29 02:42:36;;;;;;;14.75;8.00;;;;;;;;;;4938733;29;20031;-86
2021/06/29 02:45:06;;;;;;;16.27;10.13;;;;;;;;;;4939023;29;20054;-87
2021/06/29 02:47:33;;;;;;;11.52;8.65;;;;;;;;;;4938271;29;20419;-86
2021/06/29 02:49:59;;;;;;;16.58;10.65;;;;;;;;;;4938355;29;20427;-86
2021/06/29 04:42:53;;;;;;;13.40;7.28;;;;;;;;;;6151090;23;20076;-90
2021/06/29 04:45:59;;;;;;;11.25;7.75;;;;;;;;;;6153381;23;20017;-89
2021/06/29 04:52:43;;;;;;;12.20;7.07;;;;;;;;;;6194506;23;20096;-90
2021/06/29 05:03:42;;;;;;;17.15;7.95;;;;;;;;;;6134113;23;20017;-89
2021/06/29 05:06:50;;;;;;;13.57;7.50;;;;;;;;;;6197355;23;20012;-89
2021/06/29 05:09:52;;;;;;;14.40;7.18;;;;;;;;;;6197861;23;20035;-92
2021/06/29 05:12:24;;;;;;;11.40;7.90;;;;;;;;;;6195108;23;20341;-90
2021/06/29 05:14:52;;;;;;;11.57;6.97;;;;;;;;;;6198021;23;20034;-91
2021/06/29 05:17:18;;;;;;;14.35;7.03;;;;;;;;;;6197820;23;20012;-91
2021/06/29 05:23:33;;;;;;;13.30;7.55;;;;;;;;;;6103161;23;20092;-91
2021/06/29 05:29:12;;;;;;;13.00;6.45;;;;;;;;;;6102398;23;19916;-91
2021/06/29 05:45:21;;;;;;;12.85;6.60;;;;;;;;;;6128297;23;20048;-91
2021/06/29 05:51:46;;;;;;;;;;;;;;;;;;;;;
2021/06/29 06:04:01;;;;;;;14.80;6.57;;;;;;;;;;6060886;23;20416;-92
2021/06/29 06:10:14;;;;;;;13.40;5.88;;;;;;;;;;6179112;23;20029;-91
2021/06/29 06:12:50;;;;;;;;;;;;;;;;;;;;;
2021/06/29 06:15:17;;;;;;;8.40;5.43;;;;;;;;;;6188231;23;20081;-91
2021/06/29 06:17:49;;;;;;;10.60;6.15;;;;;;;;;;6163667;23;20032;-91
2021/06/29 06:20:15;;;;;;;11.95;6.07;;;;;;;;;;6161717;23;20368;-90
2021/06/29 06:22:53;;;;;;;;;;;;;;;;;;;;;
2021/06/29 06:25:45;;;;;;;9.35;5.22;;;;;;;;;;6187656;23;20084;-90
2021/06/29 06:28:25;;;;;;;11.85;6.45;;;;;;;;;;6040775;23;20019;-87
2021/06/29 06:31:04;;;;;;;;;;;;;;;;;;;;;
2021/06/29 06:33:46;;;;;;;11.20;5.32;;;;;;;;;;6039875;23;20098;-90
2021/06/29 06:36:20;;;;;;;10.32;9.10;;;;;;;;;;6015747;23;20015;-90
2021/06/29 06:39:06;;;;;;;9.93;5.70;;;;;;;;;;6014791;23;20003;-91
2021/06/29 06:41:32;;;;;;;11.07;4.60;;;;;;;;;;6038310;23;20007;-90
2021/06/29 06:44:19;;;;;;;9.30;5.07;;;;;;;;;;6014613;23;20014;-90
2021/06/29 06:47:07;;;;;;;10.98;4.95;;;;;;;;;;6015284;23;20468;-90
2021/06/29 06:49:33;;;;;;;11.40;8.32;;;;;;;;;;6045771;23;20007;-90
2021/06/29 06:51:59;;;;;;;9.30;4.63;;;;;;;;;;6014751;23;20010;-91
2021/06/29 06:54:37;;;;;;;15.00;6.28;;;;;;;;;;6014514;23;20015;-90
2021/06/29 06:57:06;;;;;;;12.23;6.88;;;;;;;;;;6038306;23;20011;-91
2021/06/29 06:59:52;;;;;;;9.57;4.82;;;;;;;;;;6038545;23;20012;-90
2021/06/29 07:02:17;;;;;;;10.60;5.30;;;;;;;;;;6038076;23;20384;-91
2021/06/29 07:04:49;;;;;;;11.60;5.50;;;;;;;;;;6058025;23;20004;-89
2021/06/29 07:07:24;;;;;;;10.55;5.15;;;;;;;;;;6161416;23;20005;-90
2021/06/29 07:13:02;;;;;;;11.18;9.18;;;;;;;;;;6186284;23;20107;-93
2021/06/29 07:15:55;;;;;;;11.85;6.70;;;;;;;;;;6159559;23;20017;-92
2021/06/29 07:18:21;;;;;;;12.60;6.60;;;;;;;;;;6186622;23;20005;-90
2021/06/29 07:21:03;;;;;;;11.38;5.93;;;;;;;;;;6160805;23;20016;-90
2021/06/29 07:23:55;;;;;;;13.02;6.40;;;;;;;;;;6186202;23;20016;-90
2021/06/29 07:26:22;;;;;;;11.70;6.57;;;;;;;;;;6160283;23;20519;-90
2021/06/29 07:28:48;;;;;;;14.15;10.60;;;;;;;;;;6160201;23;20011;-89
2021/06/29 07:31:14;;;;;;;10.52;5.13;;;;;;;;;;6160528;23;20012;-91
2021/06/29 07:34:01;;;;;;;16.30;6.68;;;;;;;;;;6159868;23;20064;-90
2021/06/29 07:36:40;;;;;;;;;;;;;;;;;;;;;
2021/06/29 07:39:07;;;;;;;15.43;6.63;;;;;;;;;;6187432;23;20072;-92
2021/06/29 07:41:57;;;;;;;11.65;6.55;;;;;;;;;;6186620;23;20040;-90
2021/06/29 07:44:46;;;;;;;15.13;6.97;;;;;;;;;;6159952;23;20357;-92
2021/06/29 07:48:03;;;;;;;;;;;;;;;;;;;;;
2021/06/29 07:50:32;;;;;;;11.48;6.07;;;;;;;;;;6061064;23;20078;-89
2021/06/29 07:53:01;;;;;;;13.55;6.38;;;;;;;;;;6041953;23;20010;-90
2021/06/29 07:55:26;;;;;;;12.35;6.43;;;;;;;;;;6042694;23;20038;-90
2021/06/29 07:58:12;;;;;;;11.63;6.15;;;;;;;;;;6067943;23;20351;-90
2021/06/29 08:00:38;;;;;;;14.95;6.93;;;;;;;;;;6022853;23;20015;-90
2021/06/29 08:03:11;;;;;;;11.30;6.05;;;;;;;;;;6042888;23;20097;-91
2021/06/29 08:05:37;;;;;;;13.27;6.55;;;;;;;;;;6043003;23;20058;-92
2021/06/29 08:08:09;;;;;;;8.90;6.03;;;;;;;;;;6098154;23;20463;-91
2021/06/29 08:10:44;;;;;;;15.98;6.72;;;;;;;;;;6186759;23;20044;-92
2021/06/29 08:13:11;;;;;;;13.30;10.18;;;;;;;;;;6161433;23;20016;-92
2021/06/29 08:15:44;;;;;;;11.93;6.10;;;;;;;;;;6160275;23;20492;-91
2021/06/29 08:18:12;;;;;;;10.10;4.93;;;;;;;;;;6160445;23;19997;-92
2021/06/29 08:20:38;;;;;;;13.85;6.38;;;;;;;;;;6160887;23;20001;-91
2021/06/29 08:23:03;;;;;;;11.25;6.15;;;;;;;;;;6159746;23;20392;-90
2021/06/29 08:25:29;;;;;;;11.27;7.82;;;;;;;;;;6160434;23;20006;-91
2021/06/29 08:27:55;;;;;;;14.32;6.75;;;;;;;;;;6159864;23;20005;-91
2021/06/29 08:30:22;;;;;;;10.57;6.55;;;;;;;;;;6159941;23;20088;-91
2021/06/29 08:32:48;;;;;;;10.93;5.57;;;;;;;;;;6159788;23;20009;-90
2021/06/29 08:35:13;;;;;;;14.85;9.27;;;;;;;;;;6159826;23;20005;-91
2021/06/29 08:37:41;;;;;;;9.27;4.88;;;;;;;;;;6160145;23;20414;-90
2021/06/29 08:40:14;;;;;;;10.45;4.68;;;;;;;;;;6186482;23;20408;-90
2021/06/29 08:42:40;;;;;;;10.70;5.00;;;;;;;;;;6187348;23;20005;-90
2021/06/29 08:45:09;;;;;;;9.95;7.95;;;;;;;;;;6161496;23;20133;-89
2021/06/29 08:47:55;;;;;;;;;;;;;;;;;;;;;
2021/06/29 08:50:25;;;;;;;11.90;5.45;;;;;;;;;;6186324;23;20392;-90
2021/06/29 08:52:50;;;;;;;11.35;5.75;;;;;;;;;;6160358;23;20015;-87
2021/06/29 08:55:44;;;;;;;11.35;8.20;;;;;;;;;;6159960;23;20029;-91
2021/06/29 08:58:12;;;;;;;8.35;4.03;;;;;;;;;;6159394;23;20005;-91
2021/06/29 09:01:19;;;;;;;;;;;;;;;;;;;;;
2021/06/29 09:04:05;;;;;;;;;;;;;;;;;;;;;
2021/06/29 09:06:47;;;;;;;;;;;;;;;;;;;;;
2021/06/29 09:09:24;;;;;;;11.23;5.18;;;;;;;;;;6186584;23;20096;-90
2021/06/29 09:12:02;;;;;;;;;;;;;;;;;;;;;
2021/06/29 09:14:31;;;;;;;11.88;3.95;;;;;;;;;;6195430;23;20032;-90
2021/06/29 09:17:22;;;;;;;9.75;4.68;;;;;;;;;;6163086;23;20029;-90
2021/06/29 09:20:17;;;;;;;9.38;4.22;;;;;;;;;;6164337;23;20012;-90
2021/06/29 09:23:10;;;;;;;7.65;3.53;;;;;;;;;;6143467;23;20009;-90
2021/06/29 09:25:53;;;;;;;;;;;;;;;;;;;;;
2021/06/29 09:28:24;;;;;;;9.73;4.45;;;;;;;;;;6188108;23;20076;-91
2021/06/29 09:31:11;;;;;;;9.50;4.90;;;;;;;;;;6161412;23;20365;-89
2021/06/29 09:33:51;;;;;;;10.13;4.43;;;;;;;;;;6187675;23;20334;-91
2021/06/29 09:36:20;;;;;;;8.05;3.42;;;;;;;;;;6161453;23;20012;-90
2021/06/29 09:38:47;;;;;;;8.35;5.43;;;;;;;;;;6161011;23;20001;-89
2021/06/29 09:41:16;;;;;;;9.05;3.67;;;;;;;;;;6162612;23;20032;-88
2021/06/29 09:43:54;;;;;;;8.40;3.35;;;;;;;;;;6161164;23;20008;-90
2021/06/29 09:46:22;;;;;;;9.02;4.43;;;;;;;;;;6187451;23;20422;-90
2021/06/29 09:48:55;;;;;;;10.00;5.63;;;;;;;;;;6186282;23;20005;-90
2021/06/29 09:51:23;;;;;;;9.68;4.28;;;;;;;;;;6161030;23;20097;-89
2021/06/29 09:54:14;;;;;;;10.63;5.05;;;;;;;;;;6161084;23;20013;-91
2021/06/29 09:56:46;;;;;;;9.70;7.10;;;;;;;;;;6179358;23;20056;-90
2021/06/29 09:59:42;;;;;;;9.63;6.95;;;;;;;;;;6161290;23;20009;-89
2021/06/29 10:02:11;;;;;;;9.02;4.65;;;;;;;;;;6043986;23;20011;-91
2021/06/29 10:04:40;;;;;;;8.55;3.67;;;;;;;;;;6043836;23;20136;-89
2021/06/29 10:07:38;;;;;;;8.43;3.70;;;;;;;;;;6067926;23;20370;-91
2021/06/29 10:10:19;;;;;;;8.38;3.85;;;;;;;;;;6024228;23;20070;-90
2021/06/29 10:12:45;;;;;;;9.63;4.35;;;;;;;;;;6043697;23;20017;-90
2021/06/29 10:15:14;;;;;;;8.95;3.88;;;;;;;;;;6043345;23;20062;-91
2021/06/29 10:17:41;;;;;;;12.13;5.13;;;;;;;;;;6067758;23;20031;-90
2021/06/29 10:20:51;;;;;;;8.05;3.92;;;;;;;;;;6043799;23;20011;-90
2021/06/29 10:23:17;;;;;;;11.35;3.83;;;;;;;;;;6042690;23;20015;-90
2021/06/29 10:25:59;;;;;;;;;;;;;;;;;;;;;
2021/06/29 10:28:29;;;;;;;9.27;3.97;;;;;;;;;;6067444;23;20526;-92
2021/06/29 10:31:35;;;;;;;;;;;;;;;;;;;;;
2021/06/29 10:34:10;;;;;;;6.60;4.25;;;;;;;;;;6067643;23;20381;-90
2021/06/29 10:36:39;;;;;;;9.57;5.95;;;;;;;;;;6043266;23;20007;-91
2021/06/29 10:39:36;;;;;;;;;;;;;;;;;;;;;
2021/06/29 10:42:06;;;;;;;8.10;4.10;;;;;;;;;;6186595;23;20091;-89
2021/06/29 10:44:36;;;;;;;;;;;;;;;;;;6187338;23;20013;-88
2021/06/29 10:47:02;;;;;;;9.57;5.82;;;;;;;;;;6160342;23;19916;-90
2021/06/29 10:49:42;;;;;;;8.25;3.95;;;;;;;;;;6160244;23;20005;-88
2021/06/29 10:52:28;;;;;;;8.57;4.78;;;;;;;;;;6160472;23;20445;-88
2021/06/29 10:55:18;;;;;;;9.65;6.07;;;;;;;;;;6160588;23;20322;-88
2021/06/29 10:57:46;;;;;;;9.90;7.28;;;;;;;;;;6160822;23;20009;-89
2021/06/29 11:00:23;;;;;;;9.80;5.20;;;;;;;;;;6160769;23;20013;-90
2021/06/29 11:02:59;;;;;;;11.98;5.38;;;;;;;;;;6160218;23;20005;-92
2021/06/29 11:05:28;;;;;;;8.73;6.97;;;;;;;;;;6186992;23;20012;-89
2021/06/29 11:08:27;;;;;;;10.45;4.05;;;;;;;;;;6160340;23;20021;-92
2021/06/29 11:10:57;;;;;;;8.40;4.40;;;;;;;;;;6139685;23;20005;-92
2021/06/29 11:17:10;;;;;;;;;;;;;;;;;;;;;
2021/06/29 11:20:06;;;;;;;10.20;3.78;;;;;;;;;;6189206;23;20080;-92
2021/06/29 11:25:50;;;;;;;9.88;4.38;;;;;;;;;;6186109;23;20012;-90
2021/06/29 11:28:33;;;;;;;8.73;4.15;;;;;;;;;;6160192;23;20005;-90
2021/06/29 11:31:06;;;;;;;8.07;4.05;;;;;;;;;;6187108;23;19997;-89
2021/06/29 11:33:35;;;;;;;8.98;4.03;;;;;;;;;;6185907;23;20178;-92
2021/06/29 11:36:02;;;;;;;9.18;3.97;;;;;;;;;;6186355;23;20005;-89
2021/06/29 11:38:57;;;;;;;10.27;4.35;;;;;;;;;;6186752;23;20005;-90
2021/06/29 11:41:31;;;;;;;7.80;3.92;;;;;;;;;;6160008;23;20048;-90
2021/06/29 11:44:09;;;;;;;8.23;4.38;;;;;;;;;;6187044;23;20032;-90
2021/06/29 11:47:10;;;;;;;7.60;3.88;;;;;;;;;;6160218;23;20012;-92
2021/06/29 11:49:59;;;;;;;8.13;4.57;;;;;;;;;;6186521;23;20452;-91
2021/06/29 11:52:32;;;;;;;10.57;7.47;;;;;;;;;;6160350;23;20009;-91
2021/06/29 11:55:07;;;;;;;8.63;4.47;;;;;;;;;;6186125;23;20008;-89
2021/06/29 11:57:42;;;;;;;6.97;4.53;;;;;;;;;;6186193;23;20433;-91
2021/06/29 12:00:22;;;;;;;9.82;5.05;;;;;;;;;;6159667;23;20009;-91
2021/06/29 12:02:51;;;;;;;8.68;4.90;;;;;;;;;;6186153;23;20039;-90
2021/06/29 12:05:19;;;;;;;8.85;5.95;;;;;;;;;;6159830;23;20043;-89
2021/06/29 12:10:58;;;;;;;8.00;4.97;;;;;;;;;;6188612;23;20028;-91
2021/06/29 12:13:29;;;;;;;9.55;5.05;;;;;;;;;;6164904;23;20009;-90
2021/06/29 12:15:57;;;;;;;10.45;4.75;;;;;;;;;;6186307;23;20008;-90
2021/06/29 12:18:37;;;;;;;8.82;7.20;;;;;;;;;;6159452;23;20001;-89
2021/06/29 12:24:21;;;;;;;11.63;4.93;;;;;;;;;;6095638;23;20059;-91
2021/06/29 12:26:46;;;;;;;9.40;4.32;;;;;;;;;;6071534;23;20007;-90
2021/06/29 12:29:49;;;;;;;;;;;;;;;;;;;;;
2021/06/29 12:35:07;;;;;;;6.72;3.50;;;;;;;;;;6008680;23;20019;-90
2021/06/29 12:37:55;;;;;;;11.27;3.85;;;;;;;;;;6009268;23;20008;-91
2021/06/29 12:40:22;;;;;;;9.02;4.43;;;;;;;;;;6009055;23;20014;-92
2021/06/29 12:42:49;;;;;;;10.30;7.70;;;;;;;;;;6009026;23;20019;-90
2021/06/29 12:45:38;;;;;;;8.88;4.15;;;;;;;;;;6009775;23;20455;-90
2021/06/29 12:48:44;;;;;;;8.13;4.93;;;;;;;;;;6011003;23;20022;-91
2021/06/29 12:51:16;;;;;;;7.03;3.42;;;;;;;;;;5992282;23;20011;-90
2021/06/29 12:54:37;;;;;;;10.18;6.47;;;;;;;;;;6011887;23;20012;-94
2021/06/29 12:57:23;;;;;;;6.45;3.50;;;;;;;;;;5931984;24;20017;-91
2021/06/29 12:59:51;;;;;;;8.38;6.07;;;;;;;;;;5970478;24;20019;-89
2021/06/29 13:02:32;;;;;;;8.68;7.40;;;;;;;;;;5982857;24;20008;-89
2021/06/29 13:05:23;;;;;;;8.77;4.22;;;;;;;;;;5982932;24;20008;-91
2021/06/29 13:07:49;;;;;;;8.10;6.90;;;;;;;;;;5932282;24;20474;-87
2021/06/29 13:10:22;;;;;;;6.65;4.22;;;;;;;;;;5975656;23;20046;-88
2021/06/29 13:12:57;;;;;;;6.10;3.58;;;;;;;;;;6159080;23;20442;-88
2021/06/29 13:15:32;;;;;;;;;;;;;;;;;;6158738;23;20047;-87
2021/06/29 13:17:59;;;;;;;8.82;6.30;;;;;;;;;;6157346;23;20317;-87
2021/06/29 13:20:29;;;;;;;7.65;4.50;;;;;;;;;;6133012;23;20118;-88
2021/06/29 13:22:58;;;;;;;12.23;7.13;;;;;;;;;;6131869;23;20006;-88
2021/06/29 13:25:30;;;;;;;7.80;3.90;;;;;;;;;;6132150;23;20020;-88
2021/06/29 13:28:14;;;;;;;6.97;4.03;;;;;;;;;;6137511;23;20010;-89
2021/06/29 13:31:15;;;;;;;9.68;4.93;;;;;;;;;;6141584;23;20009;-90
2021/06/29 13:36:29;;;;;;;6.93;2.92;;;;;;;;;;6159072;23;20105;-89
2021/06/29 13:39:00;;;;;;;7.72;3.05;;;;;;;;;;6132980;23;20080;-89
2021/06/29 13:41:55;;;;;;;6.28;3.75;;;;;;;;;;6158981;23;20072;-91
2021/06/29 13:47:14;;;;;;;6.97;3.63;;;;;;;;;;6157599;23;20449;-88
2021/06/29 13:49:40;;;;;;;9.82;6.80;;;;;;;;;;6134218;23;20013;-89
2021/06/29 13:52:21;;;;;;;;;;;;;;;;;;;;;
2021/06/29 13:55:12;;;;;;;7.57;6.22;;;;;;;;;;6158846;23;20088;-89
2021/06/29 13:57:42;;;;;;;7.60;3.20;;;;;;;;;;6158347;23;20040;-90
2021/06/29 14:00:33;;;;;;;8.02;3.72;;;;;;;;;;6158322;23;20001;-89
2021/06/29 14:03:20;;;;;;;5.80;3.25;;;;;;;;;;6131950;23;20072;-90
2021/06/29 14:05:58;;;;;;;;;;;;;;;;;;;;;
2021/06/29 14:08:41;;;;;;;10.27;6.65;;;;;;;;;;6159398;23;20088;-89
2021/06/29 14:11:32;;;;;;;;;;;;;;;;;;;;;
2021/06/29 14:14:35;;;;;;;6.38;3.42;;;;;;;;;;6130574;23;20097;-91
2021/06/29 14:17:04;;;;;;;6.22;3.10;;;;;;;;;;6126965;23;20433;-89
2021/06/29 14:19:42;;;;;;;7.65;5.70;;;;;;;;;;6126145;23;20005;-90
2021/06/29 14:22:15;;;;;;;9.10;3.08;;;;;;;;;;6126296;23;20378;-89
2021/06/29 14:25:16;;;;;;;;;;;;;;;;;;;;;
2021/06/29 14:27:54;;;;;;;;;;;;;;;;;;;;;
2021/06/29 14:30:22;;;;;;;5.78;3.75;;;;;;;;;;6129317;23;20081;-89
2021/06/29 14:32:58;;;;;;;;;;;;;;;;;;;;;
2021/06/29 14:35:34;;;;;;;9.68;3.63;;;;;;;;;;6135431;23;20342;-90
2021/06/29 14:38:00;;;;;;;7.65;3.58;;;;;;;;;;6131129;23;20005;-89
2021/06/29 14:40:26;;;;;;;8.32;6.70;;;;;;;;;;6155415;23;20028;-89
2021/06/29 14:43:10;;;;;;;7.97;6.40;;;;;;;;;;6131026;23;20068;-90
2021/06/29 14:45:46;;;;;;;8.02;3.58;;;;;;;;;;6130978;23;20002;-89
2021/06/29 14:48:12;;;;;;;7.43;3.63;;;;;;;;;;6131701;23;20366;-89
2021/06/29 14:50:40;;;;;;;9.93;4.03;;;;;;;;;;6134660;23;20006;-87
2021/06/29 14:53:06;;;;;;;14.13;4.35;;;;;;;;;;6139684;23;20005;-90
2021/06/29 14:55:32;;;;;;;5.95;3.35;;;;;;;;;;6157671;23;20453;-90
2021/06/29 14:57:58;;;;;;;6.53;3.47;;;;;;;;;;6131302;23;20013;-88
2021/06/29 15:00:24;;;;;;;6.95;3.15;;;;;;;;;;6131407;23;20006;-87
2021/06/29 15:02:50;;;;;;;7.78;3.65;;;;;;;;;;6131130;23;20013;-89
2021/06/29 15:05:16;;;;;;;8.20;3.97;;;;;;;;;;6130784;23;20006;-88
2021/06/29 15:10:27;;;;;;;7.28;3.83;;;;;;;;;;6159162;23;20062;-91
2021/06/29 15:12:54;;;;;;;7.85;5.30;;;;;;;;;;6137138;23;20396;-89
2021/06/29 15:15:28;;;;;;;5.93;3.17;;;;;;;;;;6157446;23;20445;-89
2021/06/29 15:17:54;;;;;;;6.40;3.72;;;;;;;;;;6156967;23;20362;-91
2021/06/29 15:20:20;;;;;;;7.30;3.88;;;;;;;;;;6130711;23;20430;-89
2021/06/29 15:22:48;;;;;;;8.85;3.17;;;;;;;;;;6156989;23;19993;-89
2021/06/29 15:25:16;;;;;;;7.15;3.30;;;;;;;;;;6130592;23;20422;-89
2021/06/29 15:27:42;;;;;;;8.25;2.75;;;;;;;;;;6130801;23;19993;-90
2021/06/29 15:30:27;;;;;;;7.32;3.60;;;;;;;;;;6136756;23;20009;-90
2021/06/29 15:32:53;;;;;;;6.57;2.55;;;;;;;;;;6130816;23;20012;-89
2021/06/29 15:35:19;;;;;;;6.75;2.78;;;;;;;;;;6130016;23;20022;-89
2021/06/29 15:37:45;;;;;;;7.55;2.83;;;;;;;;;;6156541;23;20021;-88
2021/06/29 15:40:19;;;;;;;8.80;5.03;;;;;;;;;;6156298;23;20021;-88
2021/06/29 15:45:14;;;;;;;7.25;3.10;;;;;;;;;;6156712;23;20033;-89
2021/06/29 15:47:44;;;;;;;8.77;6.35;;;;;;;;;;6160138;23;20045;-88
2021/06/29 15:50:11;;;;;;;6.68;5.80;;;;;;;;;;6134192;23;20496;-89
2021/06/29 15:52:50;;;;;;;8.52;3.33;;;;;;;;;;6130281;23;20010;-90
2021/06/29 15:55:17;;;;;;;5.78;2.50;;;;;;;;;;6156359;23;20001;-88
2021/06/29 15:57:44;;;;;;;5.40;2.70;;;;;;;;;;6156052;23;20338;-89
2021/06/29 16:00:12;;;;;;;5.15;2.67;;;;;;;;;;6156408;23;20001;-89
2021/06/29 16:02:37;;;;;;;6.95;3.40;;;;;;;;;;6156404;23;20033;-88
2021/06/29 16:05:04;;;;;;;11.95;3.05;;;;;;;;;;6130391;23;20037;-88
2021/06/29 16:07:30;;;;;;;7.85;2.75;;;;;;;;;;6155382;23;20018;-89
2021/06/29 16:09:56;;;;;;;5.00;2.40;;;;;;;;;;6135006;23;20132;-88
2021/06/29 16:12:22;;;;;;;6.35;2.55;;;;;;;;;;6130237;23;20128;-89
2021/06/29 16:14:48;;;;;;;6.30;2.53;;;;;;;;;;6156123;23;20303;-88
2021/06/29 16:17:13;;;;;;;5.95;2.78;;;;;;;;;;6129885;23;20061;-89
2021/06/29 16:19:40;;;;;;;6.40;3.50;;;;;;;;;;6130180;23;20021;-89
2021/06/29 16:22:06;;;;;;;6.43;2.97;;;;;;;;;;6129945;23;20068;-90
2021/06/29 16:25:04;;;;;;;5.80;3.25;;;;;;;;;;6129879;23;20009;-90
2021/06/29 16:27:40;;;;;;;4.80;2.17;;;;;;;;;;6156263;23;20365;-91
2021/06/29 16:30:22;;;;;;;7.15;2.47;;;;;;;;;;6130022;23;20006;-91
2021/06/29 16:32:48;;;;;;;5.18;2.55;;;;;;;;;;6125212;23;20026;-88
2021/06/29 16:35:15;;;;;;;6.38;2.45;;;;;;;;;;6100434;23;20030;-92
2021/06/29 16:37:41;;;;;;;7.90;2.40;;;;;;;;;;6123830;23;20100;-87
2021/06/29 16:40:07;;;;;;;8.15;2.55;;;;;;;;;;6125396;23;20014;-90
2021/06/29 16:42:33;;;;;;;4.68;2.22;;;;;;;;;;6124659;23;20026;-92
2021/06/29 16:45:08;;;;;;;5.97;2.38;;;;;;;;;;6126517;23;20013;-90
2021/06/29 16:47:36;;;;;;;5.95;2.85;;;;;;;;;;6124553;23;20035;-90
2021/06/29 16:50:03;;;;;;;6.60;2.60;;;;;;;;;;6100341;23;20009;-90
2021/06/29 16:53:05;;;;;;;;;;;;;;;;;;;;;
2021/06/29 16:55:44;;;;;;;;;;;;;;;;;;;;;
2021/06/29 16:58:31;;;;;;;5.50;2.30;;;;;;;;;;6126597;23;20097;-92
2021/06/29 17:01:00;;;;;;;5.47;2.25;;;;;;;;;;6126537;23;20025;-91
2021/06/29 17:06:57;;;;;;;;;;;;;;;;;;;;;
2021/06/29 17:09:33;;;;;;;;;;;;;;;;;;;;;
2021/06/29 17:12:01;;;;;;;6.78;3.05;;;;;;;;;;6127891;23;20089;-92
2021/06/29 17:14:44;;;;;;;6.47;2.00;;;;;;;;;;6125441;23;20030;-92
2021/06/29 17:17:32;;;;;;;;;;;;;;;;;;;;;
2021/06/29 17:20:41;;;;;;;5.93;2.47;;;;;;;;;;6126204;23;20395;-93
2021/06/29 17:23:11;;;;;;;7.38;2.80;;;;;;;;;;6128514;23;20021;-92
2021/06/29 17:25:52;;;;;;;7.38;3.10;;;;;;;;;;6126353;23;20041;-92
2021/06/29 17:28:40;;;;;;;5.05;2.78;;;;;;;;;;6130430;23;20029;-93
2021/06/29 17:31:09;;;;;;;5.30;2.60;;;;;;;;;;6132108;23;20085;-92
2021/06/29 17:33:40;;;;;;;7.10;2.72;;;;;;;;;;6126264;23;20105;-92
2021/06/29 17:36:18;;;;;;;5.40;2.20;;;;;;;;;;6129000;23;20010;-91
2021/06/29 17:38:55;;;;;;;5.20;2.50;;;;;;;;;;6127718;23;20038;-94
2021/06/29 17:41:34;;;;;;;;;;;;;;;;;;;;;
2021/06/29 17:44:18;;;;;;;6.55;2.75;;;;;;;;;;6130110;23;20085;-91
2021/06/29 17:46:44;;;;;;;6.28;2.58;;;;;;;;;;6107751;23;20347;-91
2021/06/29 17:49:11;;;;;;;6.65;3.28;;;;;;;;;;6143498;23;20025;-91
2021/06/29 17:51:49;;;;;;;;;;;;;;;;;;;;;
2021/06/29 17:54:26;;;;;;;;;;;;;;;;;;;;;
2021/06/29 17:57:27;;;;;;;;;;;;;;;;;;;;;
2021/06/29 18:03:29;;;;;;;;;;;;;;;;;;;;;
2021/06/29 18:06:01;;;;;;;9.05;3.15;;;;;;;;;;6128212;23;20065;-91
2021/06/29 18:08:46;;;;;;;;;;;;;;;;;;;;;
2021/06/29 18:11:20;;;;;;;7.03;3.75;;;;;;;;;;6145331;23;20097;-92
2021/06/29 18:13:49;;;;;;;6.75;3.80;;;;;;;;;;6131873;23;20021;-89
2021/06/29 18:16:39;;;;;;;8.80;6.25;;;;;;;;;;6158348;23;20056;-91
2021/06/29 18:19:43;;;;;;;10.00;3.58;;;;;;;;;;6132072;23;20012;-93
2021/06/29 18:22:22;;;;;;;;;;;;;;;;;;;;;
2021/06/29 18:25:05;;;;;;;;;;;;;;;;;;;;;
2021/06/29 18:28:01;;;;;;;6.72;3.38;;;;;;;;;;6068028;23;20097;-91
2021/06/29 18:30:38;;;;;;;7.80;4.03;;;;;;;;;;5983390;24;20044;-92
2021/06/29 18:33:09;;;;;;;9.05;3.78;;;;;;;;;;5983513;24;20041;-92
2021/06/29 18:35:43;;;;;;;7.65;3.72;;;;;;;;;;5982756;24;20016;-89
2021/06/29 18:38:10;;;;;;;7.70;3.88;;;;;;;;;;5958433;24;20008;-90
2021/06/29 18:40:41;;;;;;;7.05;4.03;;;;;;;;;;5980437;24;20525;-92
2021/06/29 18:44:08;;;;;;;11.43;4.13;;;;;;;;;;5958574;24;20075;-91
2021/06/29 18:46:40;;;;;;;10.05;3.75;;;;;;;;;;5953221;24;20008;-92
2021/06/29 18:49:06;;;;;;;7.55;4.38;;;;;;;;;;5982286;24;20019;-90
2021/06/29 18:51:35;;;;;;;6.85;3.30;;;;;;;;;;5958935;24;20518;-92
2021/06/29 18:54:01;;;;;;;8.52;3.70;;;;;;;;;;5981161;24;20016;-89
2021/06/29 18:56:28;;;;;;;7.45;3.22;;;;;;;;;;5999547;23;20327;-92
2021/06/29 18:59:22;;;;;;;7.45;3.67;;;;;;;;;;6101126;23;20013;-90
2021/06/29 19:02:39;;;;;;;6.45;3.45;;;;;;;;;;6122463;23;20006;-93
2021/06/29 19:04:48;;;;;;;8.38;4.53;;;;;;;;;;6116940;23;20304;-92
2021/06/29 19:07:26;;;;;;;11.05;4.80;;;;;;;;;;6127344;23;20006;-90
2021/06/29 19:09:54;;;;;;;12.30;6.85;;;;;;;;;;6100977;23;20094;-91
2021/06/29 19:12:20;;;;;;;13.27;7.38;;;;;;;;;;6101285;23;20009;-90
2021/06/29 19:14:48;;;;;;;8.10;3.75;;;;;;;;;;6101361;23;20639;-92
2021/06/29 19:17:24;;;;;;;6.53;3.50;;;;;;;;;;6101668;23;20005;-90
2021/06/29 19:20:06;;;;;;;;;;;;;;;;;;;;;
2021/06/29 19:22:32;;;;;;;9.25;3.80;;;;;;;;;;6128409;23;20112;-90
2021/06/29 19:24:57;;;;;;;5.85;3.40;;;;;;;;;;6127812;23;20044;-91
2021/06/29 19:27:23;;;;;;;6.57;2.88;;;;;;;;;;6102295;23;20503;-93
2021/06/29 19:29:51;;;;;;;6.68;3.45;;;;;;;;;;6127474;23;20025;-90
2021/06/29 19:32:17;;;;;;;7.20;3.08;;;;;;;;;;6131650;23;20075;-91
2021/06/29 19:34:43;;;;;;;6.53;3.55;;;;;;;;;;6130782;23;20437;-89
2021/06/29 19:37:09;;;;;;;6.57;3.10;;;;;;;;;;6130932;23;20009;-89
2021/06/29 19:39:34;;;;;;;6.03;3.22;;;;;;;;;;6156718;23;20005;-91
2021/06/29 19:42:00;;;;;;;7.13;3.38;;;;;;;;;;6130663;23;20084;-91
2021/06/29 19:44:26;;;;;;;7.40;3.58;;;;;;;;;;6131801;23;20005;-89